createdAt,value
2018-11-06T00:01:55.157Z,88.94
2018-11-06T00:04:29.097Z,87.00
2018-11-06T00:06:58.017Z,85.58
2018-11-06T00:09:26.714Z,85.60
2018-11-06T00:11:55.334Z,85.63
2018-11-06T00:14:23.981Z,85.26
2018-11-06T00:16:52.558Z,83.69
2018-11-06T00:19:21.570Z,82.73
2018-11-06T00:21:50.185Z,81.97
2018-11-06T00:24:18.861Z,81.28
2018-11-06T00:26:47.505Z,80.76
2018-11-06T00:29:16.124Z,79.80
2018-11-06T00:31:44.833Z,80.00
2018-11-06T00:34:13.534Z,81.30
2018-11-06T00:36:42.107Z,81.78
2018-11-06T00:39:11.051Z,82.58
2018-11-06T00:41:39.850Z,81.90
2018-11-06T00:44:08.692Z,81.24
2018-11-06T00:46:37.712Z,81.65
2018-11-06T00:49:06.516Z,82.29
2018-11-06T00:51:35.181Z,82.00
2018-11-06T00:54:03.837Z,81.19
2018-11-06T00:56:32.514Z,81.71
2018-11-06T00:59:01.181Z,80.81
2018-11-06T01:01:29.827Z,80.65
2018-11-06T01:04:03.773Z,80.28
2018-11-06T01:06:32.433Z,78.90
2018-11-06T01:09:01.073Z,77.64
2018-11-06T01:11:29.666Z,77.68
2018-11-06T01:13:58.306Z,78.85
2018-11-06T01:16:26.924Z,80.51
2018-11-06T01:18:55.591Z,80.00
2018-11-06T01:21:24.264Z,79.02
2018-11-06T01:23:52.863Z,79.06
2018-11-06T01:26:21.599Z,80.53
2018-11-06T01:28:50.250Z,80.02
2018-11-06T01:31:18.922Z,80.35
2018-11-06T01:33:47.562Z,79.04
2018-11-06T01:36:16.142Z,78.22
2018-11-06T01:38:44.773Z,79.11
2018-11-06T01:41:13.392Z,79.55
2018-11-06T01:43:42.058Z,80.50
2018-11-06T01:46:10.668Z,80.85
2018-11-06T01:48:39.317Z,79.90
2018-11-06T01:51:07.929Z,79.39
2018-11-06T01:53:36.532Z,80.68
2018-11-06T01:56:05.173Z,80.71
2018-11-06T01:58:33.796Z,79.78
2018-11-06T02:01:02.459Z,79.18
2018-11-06T02:03:31.057Z,79.31
2018-11-06T02:05:59.734Z,78.14
2018-11-06T02:08:28.368Z,78.46
2018-11-06T02:10:57.046Z,77.77
2018-11-06T02:13:25.697Z,77.92
2018-11-06T02:15:54.342Z,78.22
2018-11-06T02:18:22.973Z,78.09
2018-11-06T02:20:51.598Z,78.16
2018-11-06T02:23:20.240Z,77.67
2018-11-06T02:25:48.871Z,77.07
2018-11-06T02:28:17.485Z,77.03
2018-11-06T02:30:46.094Z,76.66
2018-11-06T02:33:14.753Z,76.63
2018-11-06T02:35:43.423Z,75.85
2018-11-06T02:38:12.141Z,75.63
2018-11-06T02:40:40.765Z,76.77
2018-11-06T02:43:09.420Z,76.23
2018-11-06T02:45:38.061Z,75.81
2018-11-06T02:48:07.127Z,75.31
2018-11-06T02:50:35.768Z,76.22
2018-11-06T02:53:10.980Z,77.96
2018-11-06T02:55:39.683Z,77.72
2018-11-06T02:58:08.269Z,77.24
2018-11-06T03:00:36.905Z,75.77
2018-11-06T03:03:05.974Z,76.37
2018-11-06T03:05:34.593Z,76.56
2018-11-06T03:08:03.221Z,76.32
2018-11-06T03:10:31.997Z,76.02
2018-11-06T03:13:00.538Z,75.61
2018-11-06T03:15:29.202Z,75.64
2018-11-06T03:17:57.859Z,75.15
2018-11-06T03:20:26.505Z,75.50
2018-11-06T03:22:55.144Z,75.74
2018-11-06T03:25:23.761Z,76.12
2018-11-06T03:27:52.385Z,76.30
2018-11-06T03:30:21.044Z,76.73
2018-11-06T03:32:49.695Z,76.08
2018-11-06T03:35:18.357Z,76.07
2018-11-06T03:37:46.966Z,76.79
2018-11-06T03:40:15.582Z,77.40
2018-11-06T03:42:44.549Z,78.61
2018-11-06T03:45:13.897Z,78.73
2018-11-06T03:47:42.511Z,79.06
2018-11-06T03:50:12.491Z,79.21
2018-11-06T03:52:41.187Z,79.21
2018-11-06T03:55:10.035Z,78.33
2018-11-06T03:57:38.651Z,79.49
2018-11-06T04:00:15.329Z,80.63
2018-11-06T04:02:44.486Z,81.24
2018-11-06T04:05:13.473Z,79.98
2018-11-06T04:07:42.117Z,80.25
2018-11-06T04:10:11.784Z,81.32
2018-11-06T04:12:41.112Z,80.96
2018-11-06T04:15:10.353Z,80.37
2018-11-06T04:17:38.950Z,81.65
2018-11-06T04:20:07.978Z,81.73
2018-11-06T04:22:36.633Z,81.37
2018-11-06T04:25:05.848Z,81.46
2018-11-06T04:27:34.536Z,82.87
2018-11-06T04:30:10.319Z,83.75
2018-11-06T04:32:39.038Z,83.04
2018-11-06T04:35:07.890Z,82.62
2018-11-06T04:37:36.571Z,82.36
2018-11-06T04:40:06.052Z,81.68
2018-11-06T04:42:34.683Z,82.02
2018-11-06T04:45:03.336Z,82.25
2018-11-06T04:47:32.027Z,81.82
2018-11-06T04:50:00.649Z,80.33
2018-11-06T04:52:29.275Z,80.75
2018-11-06T04:54:57.944Z,80.81
2018-11-06T04:57:26.513Z,80.19
2018-11-06T04:59:55.143Z,79.61
2018-11-06T05:02:23.786Z,79.63
2018-11-06T05:04:52.414Z,79.37
2018-11-06T05:07:21.940Z,79.93
2018-11-06T05:09:50.579Z,79.71
2018-11-06T05:12:19.245Z,80.02
2018-11-06T05:14:47.898Z,80.20
2018-11-06T05:17:16.532Z,80.62
2018-11-06T05:19:45.138Z,81.05
2018-11-06T05:22:13.749Z,80.49
2018-11-06T05:24:42.416Z,80.23
2018-11-06T05:27:11.212Z,80.54
2018-11-06T05:29:39.852Z,79.87
2018-11-06T05:32:08.488Z,78.71
2018-11-06T05:34:37.478Z,77.14
2018-11-06T05:37:06.131Z,76.08
2018-11-06T05:39:34.940Z,77.54
2018-11-06T05:42:03.527Z,78.89
2018-11-06T05:44:32.218Z,79.34
2018-11-06T05:47:00.862Z,80.02
2018-11-06T05:49:29.447Z,80.38
2018-11-06T05:51:58.042Z,80.93
2018-11-06T05:54:26.659Z,80.92
2018-11-06T05:56:55.278Z,80.82
2018-11-06T05:59:23.938Z,79.79
2018-11-06T06:01:52.570Z,78.77
2018-11-06T06:04:21.210Z,78.58
2018-11-06T06:06:49.930Z,78.23
2018-11-06T06:09:18.580Z,77.49
2018-11-06T06:11:47.265Z,77.57
2018-11-06T06:14:15.881Z,77.29
2018-11-06T06:16:44.538Z,76.73
2018-11-06T06:19:13.193Z,76.09
2018-11-06T06:21:41.858Z,76.53
2018-11-06T06:24:10.506Z,75.38
2018-11-06T06:26:39.173Z,75.49
2018-11-06T06:29:07.852Z,74.69
2018-11-06T06:31:36.456Z,74.85
2018-11-06T06:34:05.102Z,72.94
2018-11-06T06:36:33.756Z,71.77
2018-11-06T06:39:02.397Z,70.13
2018-11-06T06:41:31.096Z,70.26
2018-11-06T06:43:59.697Z,69.14
2018-11-06T06:46:28.391Z,69.75
2018-11-06T06:48:57.022Z,69.95
2018-11-06T06:51:25.636Z,69.98
2018-11-06T06:53:54.312Z,70.84
2018-11-06T06:56:26.029Z,69.16
2018-11-06T06:58:55.442Z,68.59
2018-11-06T07:01:24.052Z,67.58
2018-11-06T07:03:52.657Z,68.27
2018-11-06T07:06:21.334Z,67.00
2018-11-06T07:08:50.002Z,66.29
2018-11-06T07:11:18.732Z,64.65
2018-11-06T07:13:47.380Z,63.71
2018-11-06T07:16:16.070Z,62.66
2018-11-06T07:18:44.714Z,64.12
2018-11-06T07:21:13.333Z,64.26
2018-11-06T07:23:41.995Z,63.91
2018-11-06T07:26:10.611Z,64.75
2018-11-06T07:28:39.301Z,64.53
2018-11-06T07:31:07.973Z,65.05
2018-11-06T07:33:36.636Z,64.93
2018-11-06T07:36:05.302Z,64.30
2018-11-06T07:38:33.992Z,63.80
2018-11-06T07:41:02.755Z,62.84
2018-11-06T07:43:31.302Z,63.71
2018-11-06T07:45:59.984Z,63.60
2018-11-06T07:48:28.649Z,63.66
2018-11-06T07:50:57.302Z,62.81
2018-11-06T07:53:26.030Z,60.82
2018-11-06T07:55:54.820Z,61.31
2018-11-06T07:58:23.467Z,59.91
2018-11-06T08:00:52.183Z,60.23
2018-11-06T08:03:20.890Z,59.21
2018-11-06T08:05:49.859Z,60.26
2018-11-06T08:08:18.562Z,61.25
2018-11-06T08:10:47.242Z,60.76
2018-11-06T08:13:15.896Z,58.95
2018-11-06T08:15:44.626Z,59.42
2018-11-06T08:18:13.320Z,59.48
2018-11-06T08:20:42.069Z,58.05
2018-11-06T08:23:10.794Z,59.86
2018-11-06T08:25:39.449Z,57.97
2018-11-06T08:28:08.117Z,56.37
2018-11-06T08:30:36.799Z,56.65
2018-11-06T08:33:05.584Z,58.69
2018-11-06T08:35:34.249Z,57.90
2018-11-06T08:38:03.014Z,57.19
2018-11-06T08:40:31.728Z,56.21
2018-11-06T08:43:00.360Z,54.91
2018-11-06T08:45:29.043Z,56.99
2018-11-06T08:47:57.728Z,56.99
2018-11-06T08:50:26.347Z,55.92
2018-11-06T08:52:55.538Z,56.50
2018-11-06T08:55:24.245Z,55.41
2018-11-06T08:57:52.893Z,55.01
2018-11-06T09:00:21.535Z,56.01
2018-11-06T09:02:50.309Z,55.04
2018-11-06T09:05:19.558Z,54.63
2018-11-06T09:07:48.245Z,55.43
2018-11-06T09:10:17.346Z,54.63
2018-11-06T09:12:46.092Z,53.78
2018-11-06T09:15:15.652Z,54.48
2018-11-06T09:17:44.334Z,53.05
2018-11-06T09:20:14.174Z,53.00
2018-11-06T09:22:42.801Z,53.03
2018-11-06T09:25:13.687Z,53.58
2018-11-06T09:27:43.087Z,52.62
2018-11-06T09:30:14.112Z,52.06
2018-11-06T09:32:42.820Z,52.01
2018-11-06T09:35:12.411Z,51.03
2018-11-06T09:37:41.703Z,51.02
2018-11-06T09:40:12.781Z,49.93
2018-11-06T09:42:41.521Z,48.42
2018-11-06T09:45:10.953Z,49.22
2018-11-06T09:47:39.551Z,49.10
2018-11-06T09:50:11.837Z,48.91
2018-11-06T09:52:40.485Z,48.67
2018-11-06T09:55:09.137Z,49.74
2018-11-06T09:57:37.841Z,48.78
2018-11-06T10:00:12.316Z,48.78
2018-11-06T10:02:40.960Z,47.64
2018-11-06T10:05:10.396Z,47.59
2018-11-06T10:07:39.308Z,47.42
2018-11-06T10:10:10.661Z,45.37
2018-11-06T10:12:39.715Z,45.50
2018-11-06T10:15:10.363Z,46.22
2018-11-06T10:17:39.850Z,45.21
2018-11-06T10:20:09.430Z,44.80
2018-11-06T10:22:38.197Z,45.16
2018-11-06T10:25:07.332Z,44.46
2018-11-06T10:27:36.217Z,44.44
2018-11-06T10:30:11.004Z,44.57
2018-11-06T10:32:39.667Z,44.23
2018-11-06T10:35:09.064Z,43.93
2018-11-06T10:37:37.698Z,44.09
2018-11-06T10:40:09.628Z,42.73
2018-11-06T10:42:38.631Z,42.64
2018-11-06T10:45:08.067Z,41.55
2018-11-06T10:47:36.985Z,40.48
2018-11-06T10:50:06.320Z,39.70
2018-11-06T10:52:34.998Z,38.20
2018-11-06T10:55:04.017Z,38.86
2018-11-06T10:57:32.642Z,39.53
2018-11-06T11:00:01.305Z,39.21
2018-11-06T11:02:35.319Z,37.33
2018-11-06T11:05:04.035Z,36.92
2018-11-06T11:07:32.690Z,38.28
2018-11-06T11:10:01.358Z,37.41
2018-11-06T11:12:30.028Z,37.89
2018-11-06T11:14:58.697Z,38.01
2018-11-06T11:17:27.354Z,37.32
2018-11-06T11:19:56.056Z,36.83
2018-11-06T11:22:24.732Z,33.92
2018-11-06T11:24:53.374Z,33.74
2018-11-06T11:27:22.051Z,33.73
2018-11-06T11:29:50.782Z,35.18
2018-11-06T11:32:19.426Z,34.72
2018-11-06T11:34:48.414Z,35.62
2018-11-06T11:37:17.160Z,34.77
2018-11-06T11:39:45.866Z,35.36
2018-11-06T11:42:14.499Z,34.87
2018-11-06T11:44:43.133Z,35.19
2018-11-06T11:47:11.766Z,35.22
2018-11-06T11:49:40.417Z,35.75
2018-11-06T11:52:09.087Z,35.96
2018-11-06T11:54:38.637Z,36.43
2018-11-06T11:57:07.305Z,35.60
2018-11-06T11:59:35.952Z,36.38
2018-11-06T12:02:04.979Z,36.36
2018-11-06T12:04:33.600Z,37.10
2018-11-06T12:07:02.205Z,36.98
2018-11-06T12:09:30.855Z,37.14
2018-11-06T12:11:59.531Z,38.82
2018-11-06T12:14:28.136Z,38.60
2018-11-06T12:16:56.811Z,38.35
2018-11-06T12:19:25.452Z,38.05
2018-11-06T12:21:54.113Z,38.76
2018-11-06T12:24:22.828Z,38.70
2018-11-06T12:26:51.459Z,38.71
2018-11-06T12:29:20.121Z,39.54
2018-11-06T12:31:48.756Z,39.49
2018-11-06T12:34:17.413Z,39.05
2018-11-06T12:36:46.674Z,39.99
2018-11-06T12:39:15.342Z,40.67
2018-11-06T12:41:44.047Z,41.30
2018-11-06T12:44:12.689Z,42.00
2018-11-06T12:46:41.346Z,42.60
2018-11-06T12:49:10.005Z,42.67
2018-11-06T12:51:38.677Z,42.37
2018-11-06T12:54:07.460Z,43.12
2018-11-06T12:56:36.726Z,43.71
2018-11-06T12:59:05.510Z,43.62
2018-11-06T13:01:34.149Z,44.11
2018-11-06T13:04:02.845Z,44.34
2018-11-06T13:06:31.507Z,43.99
2018-11-06T13:09:00.173Z,44.23
2018-11-06T13:11:28.803Z,44.75
2018-11-06T13:13:57.544Z,45.53
2018-11-06T13:16:26.177Z,44.90
2018-11-06T13:18:54.894Z,45.63
2018-11-06T13:21:23.600Z,45.48
2018-11-06T13:23:52.221Z,45.23
2018-11-06T13:26:20.976Z,45.69
2018-11-06T13:28:49.497Z,45.01
2018-11-06T13:31:18.158Z,45.75
2018-11-06T13:33:46.855Z,46.78
2018-11-06T13:36:15.493Z,46.26
2018-11-06T13:38:44.104Z,47.10
2018-11-06T13:41:12.804Z,47.16
2018-11-06T13:43:41.695Z,46.66
2018-11-06T13:46:10.277Z,46.94
2018-11-06T13:48:38.930Z,47.74
2018-11-06T13:51:07.592Z,47.14
2018-11-06T13:53:36.220Z,48.74
2018-11-06T13:56:04.958Z,48.37
2018-11-06T13:58:33.604Z,48.76
2018-11-06T14:01:02.230Z,48.73
2018-11-06T14:03:30.889Z,48.70
2018-11-06T14:05:59.517Z,48.66
2018-11-06T14:08:28.285Z,49.23
2018-11-06T14:10:56.952Z,49.21
2018-11-06T14:13:25.552Z,49.66
2018-11-06T14:15:54.203Z,48.99
2018-11-06T14:18:23.174Z,49.20
2018-11-06T14:20:51.881Z,50.03
2018-11-06T14:23:20.511Z,49.83
2018-11-06T14:25:49.169Z,50.18
2018-11-06T14:28:18.083Z,50.57
2018-11-06T14:30:46.723Z,51.53
2018-11-06T14:33:15.390Z,51.74
2018-11-06T14:35:44.126Z,51.07
2018-11-06T14:38:12.750Z,51.93
2018-11-06T14:40:41.377Z,52.09
2018-11-06T14:43:10.029Z,53.01
2018-11-06T14:45:38.700Z,53.28
2018-11-06T14:48:07.498Z,53.84
2018-11-06T14:50:36.110Z,53.91
2018-11-06T14:53:05.035Z,53.88
2018-11-06T14:55:33.654Z,54.56
2018-11-06T14:58:02.349Z,55.19
2018-11-06T15:00:31.168Z,56.10
2018-11-06T15:02:59.780Z,55.88
2018-11-06T15:05:28.411Z,56.61
2018-11-06T15:07:57.035Z,56.70
2018-11-06T15:10:25.691Z,57.67
2018-11-06T15:12:54.333Z,58.53
2018-11-06T15:15:22.985Z,58.70
2018-11-06T15:17:51.642Z,59.35
2018-11-06T15:20:21.566Z,59.91
2018-11-06T15:22:50.239Z,60.46
2018-11-06T15:25:19.465Z,60.80
2018-11-06T15:27:48.142Z,61.43
2018-11-06T15:30:17.778Z,62.04
2018-11-06T15:32:46.392Z,62.58
2018-11-06T15:35:16.411Z,62.75
2018-11-06T15:37:45.166Z,63.53
2018-11-06T15:40:15.662Z,63.50
2018-11-06T15:42:44.458Z,64.06
2018-11-06T15:45:15.064Z,64.20
2018-11-06T15:47:44.461Z,65.21
2018-11-06T15:50:14.536Z,65.17
2018-11-06T15:52:43.912Z,65.47
2018-11-06T15:55:12.550Z,65.86
2018-11-06T15:57:41.176Z,67.41
2018-11-06T16:00:12.786Z,66.86
2018-11-06T16:02:41.711Z,68.65
2018-11-06T16:05:10.423Z,67.78
2018-11-06T16:07:39.420Z,68.09
2018-11-06T16:10:16.519Z,69.14
2018-11-06T16:12:45.716Z,70.12
2018-11-06T16:15:14.384Z,70.10
2018-11-06T16:17:43.482Z,70.41
2018-11-06T16:20:13.514Z,70.30
2018-11-06T16:22:42.366Z,70.20
2018-11-06T16:25:12.552Z,70.88
2018-11-06T16:27:41.618Z,71.02
2018-11-06T16:30:12.830Z,71.31
2018-11-06T16:32:41.519Z,71.53
2018-11-06T16:35:12.246Z,71.71
2018-11-06T16:37:41.293Z,72.30
2018-11-06T16:40:10.462Z,72.52
2018-11-06T16:42:39.601Z,73.25
2018-11-06T16:45:10.119Z,73.34
2018-11-06T16:47:38.758Z,73.20
2018-11-06T16:50:08.988Z,73.69
2018-11-06T16:52:37.624Z,73.98
2018-11-06T16:55:06.807Z,75.04
2018-11-06T16:57:35.460Z,75.38
2018-11-06T17:00:13.331Z,75.46
2018-11-06T17:02:42.449Z,75.06
2018-11-06T17:05:12.478Z,75.86
2018-11-06T17:07:41.407Z,75.63
2018-11-06T17:10:11.685Z,76.44
2018-11-06T17:12:40.436Z,76.41
2018-11-06T17:15:11.711Z,76.64
2018-11-06T17:17:40.353Z,76.46
2018-11-06T17:20:10.438Z,76.97
2018-11-06T17:22:39.240Z,76.86
2018-11-06T17:25:09.445Z,76.48
2018-11-06T17:27:38.301Z,76.76
2018-11-06T17:30:12.977Z,76.91
2018-11-06T17:32:41.959Z,76.35
2018-11-06T17:35:12.364Z,76.48
2018-11-06T17:37:41.389Z,77.17
2018-11-06T17:40:12.544Z,77.11
2018-11-06T17:42:41.612Z,77.19
2018-11-06T17:45:12.816Z,77.02
2018-11-06T17:47:41.968Z,77.21
2018-11-06T17:50:12.187Z,77.63
2018-11-06T17:52:40.876Z,77.36
2018-11-06T17:55:11.293Z,77.45
2018-11-06T17:57:40.248Z,77.03
2018-11-06T18:00:14.552Z,77.23
2018-11-06T18:02:43.383Z,77.03
2018-11-06T18:05:13.110Z,76.28
2018-11-06T18:07:42.371Z,77.10
2018-11-06T18:10:13.049Z,76.70
2018-11-06T18:12:41.765Z,77.17
2018-11-06T18:15:10.485Z,76.65
2018-11-06T18:17:39.952Z,76.80
2018-11-06T18:20:09.458Z,76.86
2018-11-06T18:22:38.203Z,76.63
2018-11-06T18:25:07.189Z,76.55
2018-11-06T18:27:35.858Z,76.89
2018-11-06T18:30:08.921Z,77.23
2018-11-06T18:32:37.790Z,76.97
2018-11-06T18:35:07.393Z,76.84
2018-11-06T18:37:36.106Z,76.73
2018-11-06T18:40:05.224Z,77.29
2018-11-06T18:42:33.849Z,76.73
2018-11-06T18:45:02.504Z,77.02
2018-11-06T18:47:31.246Z,77.21
2018-11-06T18:49:59.885Z,77.00
2018-11-06T18:52:28.536Z,77.34
2018-11-06T18:54:57.177Z,76.89
2018-11-06T18:57:25.866Z,76.87
2018-11-06T18:59:54.512Z,77.13
2018-11-06T19:02:23.140Z,77.24
2018-11-06T19:04:51.781Z,77.05
2018-11-06T19:07:20.391Z,77.39
2018-11-06T19:09:49.025Z,76.47
2018-11-06T19:12:17.646Z,76.55
2018-11-06T19:14:46.281Z,76.30
2018-11-06T19:17:14.933Z,76.20
2018-11-06T19:19:43.561Z,76.19
2018-11-06T19:22:12.204Z,75.66
2018-11-06T19:24:40.883Z,75.81
2018-11-06T19:27:09.489Z,75.57
2018-11-06T19:29:38.204Z,76.37
2018-11-06T19:32:07.032Z,75.63
2018-11-06T19:34:35.713Z,76.65
2018-11-06T19:37:04.409Z,76.55
2018-11-06T19:39:33.070Z,76.77
2018-11-06T19:42:01.785Z,77.64
2018-11-06T19:44:30.417Z,77.13
2018-11-06T19:46:59.085Z,77.32
2018-11-06T19:49:27.705Z,77.27
2018-11-06T19:51:56.312Z,77.25
2018-11-06T19:54:24.972Z,77.40
2018-11-06T19:56:53.644Z,77.29
2018-11-06T19:59:22.312Z,78.11
2018-11-06T20:01:50.972Z,78.18
2018-11-06T20:04:19.629Z,78.81
2018-11-06T20:06:48.589Z,78.74
2018-11-06T20:09:17.254Z,79.15
2018-11-06T20:11:45.980Z,79.50
2018-11-06T20:14:14.989Z,78.79
2018-11-06T20:16:43.625Z,79.52
2018-11-06T20:19:12.265Z,79.42
2018-11-06T20:21:40.935Z,79.66
2018-11-06T20:24:09.691Z,79.56
2018-11-06T20:26:38.833Z,79.94
2018-11-06T20:29:07.591Z,80.02
2018-11-06T20:31:36.283Z,79.66
2018-11-06T20:34:05.032Z,79.76
2018-11-06T20:36:33.633Z,79.42
2018-11-06T20:39:02.293Z,79.12
2018-11-06T20:41:30.955Z,79.25
2018-11-06T20:43:59.626Z,79.05
2018-11-06T20:46:28.371Z,78.71
2018-11-06T20:48:57.097Z,79.24
2018-11-06T20:51:25.755Z,79.41
2018-11-06T20:53:54.418Z,79.94
2018-11-06T20:56:23.039Z,79.23
2018-11-06T20:58:51.692Z,79.97
2018-11-06T21:01:20.523Z,80.01
2018-11-06T21:03:49.053Z,79.60
2018-11-06T21:06:17.741Z,80.28
2018-11-06T21:08:46.425Z,80.38
2018-11-06T21:11:15.141Z,80.04
2018-11-06T21:13:43.885Z,80.37
2018-11-06T21:16:12.583Z,80.24
2018-11-06T21:18:41.222Z,80.99
2018-11-06T21:21:09.882Z,80.92
2018-11-06T21:23:38.561Z,81.25
2018-11-06T21:26:07.385Z,81.05
2018-11-06T21:28:36.014Z,81.67
2018-11-06T21:31:04.709Z,80.78
2018-11-06T21:33:33.361Z,81.00
2018-11-06T21:36:02.026Z,80.72
2018-11-06T21:38:30.713Z,81.47
2018-11-06T21:40:59.384Z,80.71
2018-11-06T21:43:28.010Z,80.63
2018-11-06T21:45:56.690Z,80.81
2018-11-06T21:48:25.364Z,81.79
2018-11-06T21:50:54.039Z,81.28
2018-11-06T21:53:22.805Z,80.87
2018-11-06T21:55:51.469Z,81.61
2018-11-06T21:58:20.069Z,81.65
2018-11-06T22:00:48.863Z,81.67
2018-11-06T22:03:17.414Z,81.56
2018-11-06T22:05:46.086Z,81.48
2018-11-06T22:08:14.777Z,81.65
2018-11-06T22:10:43.492Z,81.61
2018-11-06T22:13:12.208Z,80.42
2018-11-06T22:15:40.902Z,81.38
2018-11-06T22:18:09.639Z,81.53
2018-11-06T22:20:38.372Z,81.08
2018-11-06T22:23:07.086Z,81.05
2018-11-06T22:25:35.726Z,81.29
2018-11-06T22:28:04.358Z,81.19
2018-11-06T22:30:32.978Z,81.08
2018-11-06T22:33:01.686Z,81.58
2018-11-06T22:35:30.334Z,81.27
2018-11-06T22:37:59.038Z,81.38
2018-11-06T22:40:27.711Z,81.32
2018-11-06T22:42:56.341Z,81.46
2018-11-06T22:45:24.987Z,81.66
2018-11-06T22:47:53.592Z,81.56
2018-11-06T22:50:22.257Z,81.37
2018-11-06T22:52:50.994Z,81.37
2018-11-06T22:55:19.609Z,81.16
2018-11-06T22:57:48.218Z,81.64
2018-11-06T23:00:23.509Z,80.87
2018-11-06T23:02:52.141Z,81.30
2018-11-06T23:05:20.778Z,80.75
2018-11-06T23:07:54.588Z,81.14
2018-11-06T23:10:23.275Z,81.28
2018-11-06T23:12:52.009Z,81.25
2018-11-06T23:15:20.642Z,81.06
2018-11-06T23:17:49.440Z,81.17
2018-11-06T23:20:18.058Z,80.96
2018-11-06T23:22:46.702Z,81.68
2018-11-06T23:25:15.374Z,81.51
2018-11-06T23:27:44.020Z,81.28
2018-11-06T23:30:14.322Z,81.10
2018-11-06T23:32:43.054Z,80.83
2018-11-06T23:35:11.695Z,80.70
2018-11-06T23:37:40.956Z,81.21
2018-11-06T23:40:10.334Z,81.27
2018-11-06T23:42:39.166Z,80.86
2018-11-06T23:45:08.465Z,81.10
2018-11-06T23:47:37.165Z,81.64
2018-11-06T23:50:06.350Z,81.15
2018-11-06T23:52:34.964Z,80.95
2018-11-06T23:55:03.658Z,80.96
2018-11-06T23:57:32.316Z,81.83
